createdAt,value
2022-10-17T00:01:40.402Z,101299.77
2022-10-17T00:04:11.070Z,101298.50
2022-10-17T00:06:42.540Z,101297.86
2022-10-17T00:09:12.839Z,101300.06
2022-10-17T00:11:43.527Z,101301.09
2022-10-17T00:14:14.090Z,101296.85
2022-10-17T00:16:44.759Z,101292.84
2022-10-17T00:19:15.377Z,101285.57
2022-10-17T00:21:46.325Z,101288.95
2022-10-17T00:24:17.242Z,101299.67
2022-10-17T00:26:47.855Z,101296.71
2022-10-17T00:29:18.496Z,101296.29
2022-10-17T00:31:49.840Z,101287.84
2022-10-17T00:34:20.210Z,101292.42
2022-10-17T00:36:51.105Z,101286.16
2022-10-17T00:39:21.797Z,101283.11
2022-10-17T00:41:52.139Z,101281.30
2022-10-17T00:44:57.676Z,101282.27
2022-10-17T00:47:29.093Z,101278.34
2022-10-17T00:50:03.254Z,101284.80
2022-10-17T00:52:35.240Z,101277.84
2022-10-17T00:55:11.928Z,101272.33
2022-10-17T00:57:44.041Z,101269.89
2022-10-17T01:00:17.472Z,101268.16
2022-10-17T01:02:48.344Z,101264.19
2022-10-17T01:05:20.321Z,101267.02
2022-10-17T01:07:54.037Z,101264.73
2022-10-17T01:10:26.274Z,101265.23
2022-10-17T01:13:12.549Z,101261.27
2022-10-17T01:15:53.789Z,101263.60
2022-10-17T01:18:39.392Z,101261.73
2022-10-17T01:21:27.897Z,101258.94
2022-10-17T01:24:34.666Z,101256.54
2022-10-17T01:27:37.072Z,101255.98
2022-10-17T01:30:26.929Z,101254.08
2022-10-17T01:33:00.124Z,101254.59
2022-10-17T01:35:38.420Z,101258.19
2022-10-17T01:38:12.710Z,101259.91
2022-10-17T01:40:50.151Z,101256.50
2022-10-17T01:43:25.602Z,101256.27
2022-10-17T01:46:00.714Z,101247.88
2022-10-17T01:48:36.382Z,101249.61
2022-10-17T01:51:13.762Z,101249.28
2022-10-17T01:53:50.992Z,101246.10
2022-10-17T01:56:26.032Z,101245.64
2022-10-17T01:59:01.854Z,101238.67
2022-10-17T02:01:33.580Z,101234.64
2022-10-17T02:04:06.832Z,101232.67
2022-10-17T02:06:39.360Z,101234.27
2022-10-17T02:09:22.107Z,101233.13
2022-10-17T02:12:09.604Z,101229.03
2022-10-17T02:14:55.607Z,101232.88
2022-10-17T02:17:38.583Z,101233.09
2022-10-17T02:20:17.761Z,101232.33
2022-10-17T02:22:53.326Z,101231.55
2022-10-17T02:25:37.050Z,101232.33
2022-10-17T02:28:18.047Z,101226.88
2022-10-17T02:30:53.015Z,101224.73
2022-10-17T02:33:29.552Z,101224.77
2022-10-17T02:36:03.129Z,101222.61
2022-10-17T02:38:35.619Z,101224.34
2022-10-17T02:41:07.275Z,101224.08
2022-10-17T02:43:40.347Z,101223.88
2022-10-17T02:46:11.285Z,101218.85
2022-10-17T02:48:48.689Z,101221.00
2022-10-17T02:51:28.966Z,101221.29
2022-10-17T02:54:08.670Z,101216.23
2022-10-17T02:56:42.724Z,101212.47
2022-10-17T02:59:18.846Z,101209.55
2022-10-17T03:01:51.580Z,101215.21
2022-10-17T03:04:22.372Z,101212.42
2022-10-17T03:06:53.151Z,101210.73
2022-10-17T03:09:24.408Z,101210.14
2022-10-17T03:11:54.793Z,101213.10
2022-10-17T03:14:25.707Z,101215.45
2022-10-17T03:16:56.347Z,101214.61
2022-10-17T03:19:26.822Z,101216.64
2022-10-17T03:21:57.919Z,101216.90
2022-10-17T03:24:29.270Z,101213.48
2022-10-17T03:27:00.237Z,101212.09
2022-10-17T03:29:31.257Z,101217.91
2022-10-17T03:32:02.004Z,101218.08
2022-10-17T03:34:32.633Z,101217.33
2022-10-17T03:37:03.293Z,101212.80
2022-10-17T03:39:34.113Z,101207.60
2022-10-17T03:42:05.452Z,101210.23
2022-10-17T03:44:35.769Z,101212.88
2022-10-17T03:47:09.207Z,101214.19
2022-10-17T03:49:42.606Z,101226.84
2022-10-17T03:52:15.088Z,101235.45
2022-10-17T03:54:45.583Z,101231.23
2022-10-17T03:57:16.310Z,101225.23
2022-10-17T03:59:47.603Z,101224.60
2022-10-17T04:02:18.539Z,101215.93
2022-10-17T04:04:48.932Z,101222.98
2022-10-17T04:07:19.983Z,101221.80
2022-10-17T04:09:50.361Z,101221.59
2022-10-17T04:12:20.733Z,101228.89
2022-10-17T04:14:51.095Z,101228.75
2022-10-17T04:17:21.536Z,101229.73
2022-10-17T04:19:53.292Z,101227.94
2022-10-17T04:22:23.670Z,101224.48
2022-10-17T04:24:53.997Z,101225.15
2022-10-17T04:27:24.587Z,101221.81
2022-10-17T04:29:55.137Z,101225.02
2022-10-17T04:32:25.970Z,101223.73
2022-10-17T04:34:56.492Z,101230.03
2022-10-17T04:37:26.959Z,101231.98
2022-10-17T04:39:57.684Z,101231.80
2022-10-17T04:42:29.991Z,101233.70
2022-10-17T04:45:01.155Z,101231.53
2022-10-17T04:47:31.762Z,101232.25
2022-10-17T04:50:02.382Z,101228.63
2022-10-17T04:52:33.381Z,101231.23
2022-10-17T04:55:04.387Z,101228.09
2022-10-17T04:57:37.483Z,101225.31
2022-10-17T05:02:45.578Z,101230.34
2022-10-17T05:05:16.324Z,101227.64
2022-10-17T05:07:47.282Z,101224.42
2022-10-17T05:10:18.230Z,101220.70
2022-10-17T05:12:49.319Z,101222.94
2022-10-17T05:15:20.025Z,101216.05
2022-10-17T05:17:50.655Z,101218.27
2022-10-17T05:20:21.464Z,101220.50
2022-10-17T05:22:52.428Z,101220.15
2022-10-17T05:25:22.935Z,101226.20
2022-10-17T05:27:53.292Z,101226.95
2022-10-17T05:30:23.948Z,101231.21
2022-10-17T05:32:56.480Z,101236.70
2022-10-17T05:35:27.227Z,101237.50
2022-10-17T05:37:57.633Z,101233.70
2022-10-17T05:40:28.322Z,101234.73
2022-10-17T05:42:59.129Z,101236.23
2022-10-17T05:45:30.030Z,101231.84
2022-10-17T05:48:00.949Z,101237.38
2022-10-17T05:50:31.669Z,101240.59
2022-10-17T05:53:02.953Z,101241.65
2022-10-17T05:55:33.973Z,101243.95
2022-10-17T05:58:04.677Z,101246.39
2022-10-17T06:00:36.022Z,101252.17
2022-10-17T06:03:06.927Z,101253.52
2022-10-17T06:05:39.054Z,101252.63
2022-10-17T06:08:09.742Z,101247.91
2022-10-17T06:10:40.926Z,101246.95
2022-10-17T06:13:11.605Z,101255.89
2022-10-17T06:15:42.896Z,101252.45
2022-10-17T06:18:13.352Z,101254.92
2022-10-17T06:20:46.120Z,101261.27
2022-10-17T06:23:17.001Z,101262.15
2022-10-17T06:25:47.318Z,101266.29
2022-10-17T06:28:17.773Z,101264.64
2022-10-17T06:30:48.424Z,101265.73
2022-10-17T06:33:20.853Z,101265.41
2022-10-17T06:35:55.364Z,101265.98
2022-10-17T06:38:26.119Z,101269.85
2022-10-17T06:40:57.854Z,101270.02
2022-10-17T06:43:29.878Z,101269.05
2022-10-17T06:46:00.277Z,101269.65
2022-10-17T06:48:30.666Z,101274.41
2022-10-17T06:51:04.496Z,101267.42
2022-10-17T06:53:36.295Z,101269.70
2022-10-17T06:56:08.209Z,101273.89
2022-10-17T06:58:40.583Z,101277.91
2022-10-17T07:01:12.979Z,101280.95
2022-10-17T07:03:43.697Z,101283.84
2022-10-17T07:06:14.030Z,101282.19
2022-10-17T07:08:46.983Z,101283.56
2022-10-17T07:11:19.561Z,101282.52
2022-10-17T07:13:50.636Z,101284.89
2022-10-17T07:16:21.336Z,101284.26
2022-10-17T07:18:54.342Z,101286.92
2022-10-17T07:21:25.248Z,101290.78
2022-10-17T07:23:55.646Z,101291.09
2022-10-17T07:26:26.305Z,101295.11
2022-10-17T07:28:57.605Z,101298.11
2022-10-17T07:31:28.152Z,101298.45
2022-10-17T07:34:00.177Z,101306.15
2022-10-17T07:36:30.561Z,101303.56
2022-10-17T07:39:00.901Z,101310.33
2022-10-17T07:41:31.251Z,101315.23
2022-10-17T07:44:01.655Z,101321.48
2022-10-17T07:46:32.198Z,101322.88
2022-10-17T07:49:02.629Z,101316.88
2022-10-17T07:51:33.610Z,101313.50
2022-10-17T07:54:05.735Z,101309.33
2022-10-17T07:56:36.221Z,101311.23
2022-10-17T07:59:09.197Z,101318.25
2022-10-17T08:01:40.007Z,101317.88
2022-10-17T08:04:10.731Z,101321.50
2022-10-17T08:06:41.185Z,101320.56
2022-10-17T08:09:11.618Z,101318.93
2022-10-17T08:11:43.946Z,101317.25
2022-10-17T08:14:16.843Z,101320.58
2022-10-17T08:16:47.183Z,101316.99
2022-10-17T08:19:17.900Z,101317.46
2022-10-17T08:21:50.046Z,101315.81
2022-10-17T08:24:20.836Z,101313.99
2022-10-17T08:26:53.366Z,101319.32
2022-10-17T08:29:23.993Z,101319.20
2022-10-17T08:31:58.673Z,101318.70
2022-10-17T08:34:31.933Z,101319.22
2022-10-17T08:37:02.351Z,101318.98
2022-10-17T08:39:32.863Z,101318.55
2022-10-17T08:42:19.281Z,101311.92
2022-10-17T08:44:58.377Z,101312.50
2022-10-17T08:47:37.217Z,101309.27
2022-10-17T08:50:13.593Z,101305.27
2022-10-17T08:52:47.988Z,101304.45
2022-10-17T08:55:29.621Z,101303.10
2022-10-17T08:58:00.482Z,101300.34
2022-10-17T09:00:33.338Z,101301.57
2022-10-17T09:03:17.776Z,101299.85
2022-10-17T09:05:54.933Z,101300.65
2022-10-17T09:08:37.287Z,101299.25
2022-10-17T09:11:18.258Z,101296.25
2022-10-17T09:14:01.984Z,101293.38
2022-10-17T09:16:46.221Z,101297.90
2022-10-17T09:19:22.438Z,101293.66
2022-10-17T09:21:59.421Z,101291.28
2022-10-17T09:24:41.662Z,101296.02
2022-10-17T09:27:20.929Z,101302.33
2022-10-17T09:29:56.482Z,101294.02
2022-10-17T09:32:28.272Z,101287.80
2022-10-17T09:34:58.935Z,101281.41
2022-10-17T09:37:33.808Z,101280.03
2022-10-17T09:40:07.530Z,101280.50
2022-10-17T09:42:38.501Z,101283.74
2022-10-17T09:45:24.695Z,101288.31
2022-10-17T09:48:03.127Z,101295.84
2022-10-17T09:50:35.326Z,101295.65
2022-10-17T09:53:14.852Z,101297.67
2022-10-17T09:55:48.237Z,101299.42
2022-10-17T09:58:18.593Z,101297.13
2022-10-17T10:00:49.900Z,101294.05
2022-10-17T10:03:22.782Z,101294.68
2022-10-17T10:06:14.945Z,101298.26
2022-10-17T10:08:55.189Z,101299.08
2022-10-17T10:11:45.510Z,101300.36
2022-10-17T10:14:24.111Z,101299.63
2022-10-17T10:16:55.852Z,101304.06
2022-10-17T10:19:32.188Z,101309.48
2022-10-17T10:22:05.021Z,101309.71
2022-10-17T10:24:35.884Z,101304.80
2022-10-17T10:27:12.039Z,101304.58
2022-10-17T10:29:44.995Z,101305.15
2022-10-17T10:32:23.337Z,101298.05
2022-10-17T10:34:56.829Z,101297.87
2022-10-17T10:37:32.803Z,101303.77
2022-10-17T10:40:05.637Z,101301.44
2022-10-17T10:42:39.627Z,101292.81
2022-10-17T10:45:35.873Z,101284.58
2022-10-17T10:48:22.490Z,101286.00
2022-10-17T10:50:57.232Z,101285.95
2022-10-17T10:53:40.677Z,101291.64
2022-10-17T10:56:18.153Z,101293.80
2022-10-17T10:58:55.256Z,101306.08
2022-10-17T11:01:31.857Z,101308.42
2022-10-17T11:04:18.494Z,101313.75
2022-10-17T11:06:52.472Z,101316.20
2022-10-17T11:09:43.845Z,101318.13
2022-10-17T11:12:21.150Z,101325.02
2022-10-17T11:14:57.210Z,101333.48
2022-10-17T11:17:36.081Z,101332.40
2022-10-17T11:20:23.036Z,101332.66
2022-10-17T11:22:59.821Z,101332.88
2022-10-17T11:25:37.646Z,101335.40
2022-10-17T11:28:15.856Z,101336.96
2022-10-17T11:30:51.597Z,101337.35
2022-10-17T11:33:29.969Z,101337.01
2022-10-17T11:36:06.799Z,101334.87
2022-10-17T11:38:46.894Z,101332.52
2022-10-17T11:41:23.369Z,101337.09
2022-10-17T11:43:58.309Z,101336.99
2022-10-17T11:46:29.703Z,101330.89
2022-10-17T11:49:07.561Z,101326.50
2022-10-17T11:52:03.155Z,101320.03
2022-10-17T11:54:39.187Z,101304.99
2022-10-17T11:57:36.065Z,101298.34
2022-10-17T12:00:22.427Z,101301.13
2022-10-17T12:03:05.583Z,101308.34
2022-10-17T12:05:42.789Z,101313.38
2022-10-17T12:08:19.493Z,101315.90
2022-10-17T12:10:59.351Z,101312.98
2022-10-17T12:13:53.252Z,101308.72
2022-10-17T12:16:52.350Z,101314.34
2022-10-17T12:19:28.666Z,101310.21
2022-10-17T12:22:01.761Z,101315.76
2022-10-17T12:24:38.149Z,101321.14
2022-10-17T12:27:45.929Z,101318.52
2022-10-17T12:30:22.335Z,101323.98
2022-10-17T12:33:07.514Z,101329.89
2022-10-17T12:35:40.274Z,101324.43
2022-10-17T12:38:25.099Z,101322.55
2022-10-17T12:41:11.793Z,101317.11
2022-10-17T12:46:51.017Z,101314.11
2022-10-17T12:49:41.866Z,101306.55
2022-10-17T12:52:49.369Z,101308.00
2022-10-17T12:55:21.243Z,101312.39
2022-10-17T12:57:56.718Z,101311.73
2022-10-17T13:00:34.777Z,101309.48
2022-10-17T13:03:18.393Z,101303.79
2022-10-17T13:05:52.409Z,101303.43
2022-10-17T13:08:26.674Z,101309.97
2022-10-17T13:10:58.241Z,101313.20
2022-10-17T13:13:48.774Z,101310.84
2022-10-17T13:16:32.833Z,101318.82
2022-10-17T13:19:05.171Z,101320.99
2022-10-17T13:21:35.536Z,101324.05
2022-10-17T13:24:22.829Z,101326.64
2022-10-17T13:26:53.230Z,101333.39
2022-10-17T13:29:25.678Z,101340.27
2022-10-17T13:32:01.198Z,101343.67
2022-10-17T13:34:32.480Z,101342.60
2022-10-17T13:37:05.548Z,101346.73
2022-10-17T13:39:58.139Z,101349.98
2022-10-17T13:42:33.187Z,101353.90
2022-10-17T13:45:04.836Z,101360.38
2022-10-17T13:47:40.741Z,101364.54
2022-10-17T13:50:43.121Z,101364.02
2022-10-17T13:53:20.807Z,101362.40
2022-10-17T13:56:15.689Z,101361.28
2022-10-17T13:58:48.985Z,101369.42
2022-10-17T14:01:20.647Z,101374.48
2022-10-17T14:04:02.137Z,101370.70
2022-10-17T14:06:47.666Z,101368.65
2022-10-17T14:09:25.443Z,101372.00
2022-10-17T14:12:05.066Z,101359.35
2022-10-17T14:14:58.112Z,101355.70
2022-10-17T14:17:29.244Z,101362.99
2022-10-17T14:23:20.978Z,101373.50
2022-10-17T14:25:44.302Z,101374.63
2022-10-17T14:28:18.475Z,101376.39
2022-10-17T14:30:56.868Z,101382.25
2022-10-17T14:33:30.315Z,101387.01
2022-10-17T14:36:03.604Z,101393.13
2022-10-17T14:38:35.967Z,101389.95
2022-10-17T14:44:08.061Z,101398.08
2022-10-17T14:46:49.582Z,101399.05
2022-10-17T14:49:26.231Z,101396.36
2022-10-17T14:52:29.664Z,101398.33
2022-10-17T14:55:02.217Z,101402.22
2022-10-17T14:57:44.735Z,101404.33
2022-10-17T15:00:18.456Z,101410.92
2022-10-17T15:02:50.166Z,101413.02
2022-10-17T15:05:23.032Z,101417.04
2022-10-17T15:07:54.696Z,101419.45
2022-10-17T15:10:33.702Z,101416.69
2022-10-17T15:13:26.594Z,101418.20
2022-10-17T15:15:55.088Z,101419.24
2022-10-17T15:18:25.540Z,101423.68
2022-10-17T15:21:04.902Z,101428.41
2022-10-17T15:23:37.426Z,101427.52
2022-10-17T15:26:14.101Z,101429.37
2022-10-17T15:28:45.542Z,101426.81
2022-10-17T15:31:18.719Z,101434.77
2022-10-17T15:33:50.377Z,101439.86
2022-10-17T15:36:27.546Z,101444.73
2022-10-17T15:39:00.032Z,101447.16
2022-10-17T15:41:32.238Z,101449.77
2022-10-17T15:44:02.907Z,101453.02
2022-10-17T15:46:35.960Z,101453.82
2022-10-17T15:49:08.547Z,101460.57
2022-10-17T15:51:38.954Z,101464.45
2022-10-17T15:54:09.757Z,101464.70
2022-10-17T15:56:42.346Z,101471.68
2022-10-17T15:59:17.914Z,101472.13
2022-10-17T16:01:49.087Z,101475.70
2022-10-17T16:04:19.795Z,101473.82
2022-10-17T16:06:50.068Z,101472.38
2022-10-17T16:09:20.356Z,101477.34
2022-10-17T16:11:50.695Z,101480.23
2022-10-17T16:14:21.365Z,101475.91
2022-10-17T16:16:52.077Z,101475.53
2022-10-17T16:19:23.697Z,101477.76
2022-10-17T16:21:56.272Z,101485.70
2022-10-17T16:24:28.321Z,101487.79
2022-10-17T16:26:59.588Z,101491.86
2022-10-17T16:29:29.954Z,101494.05
2022-10-17T16:32:00.515Z,101499.77
2022-10-17T16:34:32.475Z,101501.09
2022-10-17T16:37:03.738Z,101504.91
2022-10-17T16:39:34.815Z,101508.06
2022-10-17T16:42:05.614Z,101510.33
2022-10-17T16:44:36.001Z,101516.08
2022-10-17T16:47:06.331Z,101521.26
2022-10-17T16:49:40.319Z,101527.01
2022-10-17T16:52:14.094Z,101530.20
2022-10-17T16:54:45.001Z,101527.67
2022-10-17T16:57:15.836Z,101538.44
2022-10-17T16:59:48.156Z,101536.48
2022-10-17T17:02:21.283Z,101534.75
2022-10-17T17:04:52.368Z,101538.35
2022-10-17T17:07:24.392Z,101538.19
2022-10-17T17:09:55.697Z,101538.55
2022-10-17T17:12:26.531Z,101545.40
2022-10-17T17:14:57.269Z,101544.54
2022-10-17T17:17:36.817Z,101552.08
2022-10-17T17:20:18.466Z,101547.80
2022-10-17T17:22:50.836Z,101550.40
2022-10-17T17:25:22.315Z,101554.18
2022-10-17T17:27:52.752Z,101554.73
2022-10-17T17:30:23.353Z,101560.67
2022-10-17T17:32:54.317Z,101563.41
2022-10-17T17:35:25.361Z,101570.96
2022-10-17T17:37:55.905Z,101577.91
2022-10-17T17:40:26.335Z,101579.66
2022-10-17T17:42:57.473Z,101586.35
2022-10-17T17:45:28.602Z,101585.30
2022-10-17T17:47:59.046Z,101588.21
2022-10-17T17:50:29.973Z,101588.77
2022-10-17T17:53:01.523Z,101590.21
2022-10-17T17:55:32.461Z,101595.66
2022-10-17T17:58:04.511Z,101592.45
2022-10-17T18:00:35.752Z,101592.39
2022-10-17T18:03:07.536Z,101596.52
2022-10-17T18:05:41.440Z,101601.55
2022-10-17T18:08:12.715Z,101600.09
2022-10-17T18:10:47.924Z,101593.34
2022-10-17T18:13:19.134Z,101589.92
2022-10-17T18:15:51.963Z,101591.59
2022-10-17T18:18:23.829Z,101600.18
2022-10-17T18:20:55.370Z,101610.00
2022-10-17T18:23:26.829Z,101610.77
2022-10-17T18:26:01.129Z,101614.52
2022-10-17T18:28:34.177Z,101615.34
2022-10-17T18:31:08.937Z,101614.05
2022-10-17T18:33:39.922Z,101617.98
2022-10-17T18:36:12.808Z,101622.95
2022-10-17T18:38:44.515Z,101629.95
2022-10-17T18:41:16.258Z,101631.84
2022-10-17T18:43:48.260Z,101634.09
2022-10-17T18:46:20.201Z,101634.26
2022-10-17T18:48:51.747Z,101636.50
2022-10-17T18:51:24.101Z,101646.04
2022-10-17T18:53:58.569Z,101649.84
2022-10-17T18:56:30.123Z,101651.00
2022-10-17T18:59:01.376Z,101652.39
2022-10-17T19:01:32.175Z,101659.73
2022-10-17T19:04:03.027Z,101657.90
2022-10-17T19:06:34.188Z,101655.36
2022-10-17T19:09:07.272Z,101654.66
2022-10-17T19:11:39.004Z,101651.33
2022-10-17T19:14:13.313Z,101650.95
2022-10-17T19:16:45.866Z,101648.45
2022-10-17T19:19:19.222Z,101646.33
2022-10-17T19:21:49.945Z,101639.38
2022-10-17T19:24:21.977Z,101639.17
2022-10-17T19:26:54.969Z,101637.65
2022-10-17T19:29:28.147Z,101643.33
2022-10-17T19:31:58.469Z,101650.84
2022-10-17T19:34:29.857Z,101653.84
2022-10-17T19:37:00.755Z,101654.92
2022-10-17T19:39:32.941Z,101654.91
2022-10-17T19:42:06.740Z,101655.02
2022-10-17T19:44:38.108Z,101657.20
2022-10-17T19:47:09.125Z,101657.52
2022-10-17T19:49:39.710Z,101658.34
2022-10-17T19:52:10.356Z,101659.80
2022-10-17T19:54:41.523Z,101660.83
2022-10-17T19:57:12.243Z,101658.52
2022-10-17T19:59:43.582Z,101658.26
2022-10-17T20:02:15.276Z,101659.88
2022-10-17T20:04:54.535Z,101657.63
2022-10-17T20:07:36.652Z,101655.48
2022-10-17T20:10:08.735Z,101661.59
2022-10-17T20:12:39.421Z,101669.95
2022-10-17T20:15:10.988Z,101675.88
2022-10-17T20:17:41.803Z,101684.02
2022-10-17T20:20:13.335Z,101685.21
2022-10-17T20:22:44.084Z,101690.00
2022-10-17T20:25:15.366Z,101699.55
2022-10-17T20:27:46.578Z,101706.45
2022-10-17T20:30:17.584Z,101709.61
2022-10-17T20:32:48.254Z,101716.88
2022-10-17T20:35:19.059Z,101722.49
2022-10-17T20:37:49.926Z,101726.42
2022-10-17T20:40:34.763Z,101727.35
2022-10-17T20:43:07.495Z,101729.67
2022-10-17T20:45:51.471Z,101732.16
2022-10-17T20:48:23.098Z,101731.23
2022-10-17T20:50:54.261Z,101742.27
2022-10-17T20:53:36.717Z,101751.00
2022-10-17T20:56:11.537Z,101750.71
2022-10-17T20:58:42.153Z,101745.10
2022-10-17T21:01:13.906Z,101744.66
2022-10-17T21:03:46.506Z,101750.13
2022-10-17T21:06:18.898Z,101756.98
2022-10-17T21:08:50.876Z,101760.06
2022-10-17T21:11:23.202Z,101763.86
2022-10-17T21:13:59.299Z,101766.17
2022-10-17T21:16:31.348Z,101764.90
2022-10-17T21:19:02.108Z,101768.62
2022-10-17T21:21:34.444Z,101767.52
2022-10-17T21:24:07.792Z,101761.58
2022-10-17T21:26:39.413Z,101765.48
2022-10-17T21:29:11.194Z,101766.23
2022-10-17T21:31:43.456Z,101764.41
2022-10-17T21:34:17.585Z,101765.35
2022-10-17T21:36:48.714Z,101766.02
2022-10-17T21:39:20.165Z,101774.34
2022-10-17T21:41:50.930Z,101780.13
2022-10-17T21:44:23.199Z,101779.89
2022-10-17T21:46:55.440Z,101783.02
2022-10-17T21:49:27.772Z,101781.96
2022-10-17T21:51:58.329Z,101782.91
2022-10-17T21:54:28.963Z,101781.23
2022-10-17T21:56:59.594Z,101783.58
2022-10-17T21:59:31.890Z,101792.05
2022-10-17T22:02:03.105Z,101792.48
2022-10-17T22:04:33.982Z,101795.73
2022-10-17T22:07:04.655Z,101797.07
2022-10-17T22:09:35.019Z,101796.35
2022-10-17T22:12:05.637Z,101799.80
2022-10-17T22:14:36.601Z,101799.31
2022-10-17T22:17:07.298Z,101802.60
2022-10-17T22:19:38.459Z,101801.86
2022-10-17T22:22:09.394Z,101807.16
2022-10-17T22:24:40.640Z,101810.86
2022-10-17T22:27:11.256Z,101807.95
2022-10-17T22:29:42.201Z,101804.17
2022-10-17T22:32:12.826Z,101802.48
2022-10-17T22:34:43.438Z,101803.02
2022-10-17T22:37:13.790Z,101801.29
2022-10-17T22:39:44.763Z,101796.76
2022-10-17T22:42:15.817Z,101796.48
2022-10-17T22:44:46.647Z,101796.06
2022-10-17T22:47:17.309Z,101791.27
2022-10-17T22:49:47.999Z,101794.08
2022-10-17T22:52:18.997Z,101796.94
2022-10-17T22:54:50.171Z,101793.15
2022-10-17T22:57:20.496Z,101799.37
2022-10-17T22:59:51.109Z,101800.52
2022-10-17T23:02:21.469Z,101797.34
2022-10-17T23:04:52.149Z,101796.13
2022-10-17T23:07:22.807Z,101800.71
2022-10-17T23:09:53.606Z,101806.51
2022-10-17T23:12:24.590Z,101810.84
2022-10-17T23:14:55.514Z,101807.33
2022-10-17T23:17:26.560Z,101810.70
2022-10-17T23:19:57.794Z,101813.41
2022-10-17T23:22:28.591Z,101814.83
2022-10-17T23:24:59.352Z,101820.44
2022-10-17T23:30:05.971Z,101824.40
2022-10-17T23:32:36.313Z,101826.88
2022-10-17T23:35:07.757Z,101827.64
2022-10-17T23:37:39.282Z,101831.59
2022-10-17T23:40:11.921Z,101830.36
2022-10-17T23:42:42.305Z,101827.02
2022-10-17T23:45:13.983Z,101826.66
2022-10-17T23:47:44.378Z,101830.20
2022-10-17T23:50:15.132Z,101830.50
2022-10-17T23:52:45.490Z,101828.67
2022-10-17T23:55:16.063Z,101826.89
2022-10-17T23:57:46.376Z,101829.02
